Time;durP1;ratioP1;P1;durP2;ratioP2;P2;SDS_P1;SDS_P2;PMS_P1;PMS_P2;Temp;Humidity;BMP_temperature;BMP_pressure;BME280_temperature;BME280_humidity;BME280_pressure;Samples;Min_cycle;Max_cycle;Signal;HPM_P1;HPM_P2
2022/11/14 00:00:52;;;;;;;28.83;15.13;;;7.50;99.90;;;;;;5087895;28;20079;-89
2022/11/14 00:03:18;;;;;;;25.58;15.23;;;7.90;99.90;;;;;;5052479;28;20399;-89
2022/11/14 00:05:44;;;;;;;24.83;15.23;;;7.00;99.90;;;;;;5054100;28;20580;-89
2022/11/14 00:11:05;;;;;;;28.73;16.10;;;8.10;99.90;;;;;;5044754;28;20109;-88
2022/11/14 00:13:34;;;;;;;25.73;15.52;;;6.60;99.90;;;;;;5065680;28;20036;-88
2022/11/14 00:16:00;;;;;;;25.77;15.52;;;7.00;99.90;;;;;;5052281;28;20048;-89
2022/11/14 00:18:25;;;;;;;25.27;15.02;;;7.10;99.90;;;;;;5054081;28;20079;-89
2022/11/14 00:20:52;;;;;;;29.45;16.42;;;7.80;99.90;;;;;;5068347;28;20043;-89
2022/11/14 00:23:19;;;;;;;28.33;16.23;;;7.80;99.90;;;;;;5070678;28;20055;-89
2022/11/14 00:25:45;;;;;;;28.20;16.27;;;7.10;99.90;;;;;;5051283;28;20518;-89
2022/11/14 00:28:11;;;;;;;34.78;18.58;;;8.10;99.90;;;;;;5053569;28;20052;-88
2022/11/14 00:30:36;;;;;;;32.60;17.23;;;7.60;99.90;;;;;;5068500;28;20441;-91
2022/11/14 00:33:02;;;;;;;31.13;17.65;;;7.10;99.90;;;;;;5036255;28;20036;-88
2022/11/14 00:35:28;;;;;;;32.85;17.80;;;7.10;99.90;;;;;;5036036;28;20056;-89
2022/11/14 00:37:53;;;;;;;31.60;19.35;;;7.20;99.90;;;;;;5086324;28;20541;-89
2022/11/14 00:40:19;;;;;;;32.20;17.90;;;7.20;99.90;;;;;;5036125;28;20083;-87
2022/11/14 00:42:45;;;;;;;33.15;19.38;;;7.60;99.90;;;;;;5034220;28;20101;-88
2022/11/14 00:45:11;;;;;;;30.75;16.88;;;7.20;99.90;;;;;;5053144;28;20043;-88
2022/11/14 00:47:36;;;;;;;31.58;17.80;;;7.90;99.90;;;;;;5034501;28;20067;-88
2022/11/14 00:50:03;;;;;;;33.13;17.67;;;7.20;99.90;;;;;;5052420;28;20052;-88
2022/11/14 00:52:29;;;;;;;34.65;17.90;;;7.20;99.90;;;;;;5035654;28;20170;-88
2022/11/14 00:54:54;;;;;;;31.63;18.35;;;7.20;99.90;;;;;;5052119;28;20056;-89
2022/11/14 00:57:20;;;;;;;35.55;19.60;;;7.30;99.90;;;;;;5069154;28;20044;-90
2022/11/14 00:59:46;;;;;;;33.15;18.35;;;7.50;99.90;;;;;;5067726;28;20040;-89
2022/11/14 01:02:11;;;;;;;31.63;19.48;;;8.00;99.90;;;;;;5036465;28;20040;-90
2022/11/14 01:04:37;;;;;;;32.30;19.38;;;7.20;99.90;;;;;;5034604;28;20036;-88
2022/11/14 01:07:03;;;;;;;32.38;19.40;;;7.30;99.90;;;;;;5087841;28;20052;-87
2022/11/14 01:09:28;;;;;;;32.58;19.77;;;7.30;99.90;;;;;;5051277;28;20094;-88
2022/11/14 01:11:54;;;;;;;37.88;20.88;;;7.30;99.90;;;;;;5050441;28;20063;-88
2022/11/14 01:14:20;;;;;;;37.67;22.85;;;7.30;99.90;;;;;;5050004;28;20556;-88
2022/11/14 01:16:48;;;;;;;38.85;22.98;;;8.30;99.90;;;;;;5082967;28;20086;-89
2022/11/14 01:19:13;;;;;;;37.78;21.55;;;7.20;99.90;;;;;;5050754;28;20040;-88
2022/11/14 01:21:39;;;;;;;36.30;23.35;;;7.20;99.90;;;;;;5049732;28;20537;-87
2022/11/14 01:24:05;;;;;;;40.03;25.58;;;7.40;99.90;;;;;;5087399;28;20040;-88
2022/11/14 01:26:31;;;;;;;42.85;26.33;;;7.20;99.90;;;;;;5085988;28;20048;-89
2022/11/14 01:28:57;;;;;;;46.97;27.13;;;7.70;99.90;;;;;;5035359;28;20086;-88
2022/11/14 01:31:24;;;;;;;43.28;26.88;;;7.60;99.90;;;;;;5033930;28;20044;-88
2022/11/14 01:33:52;;;;;;;39.90;25.90;;;7.10;99.90;;;;;;5067094;28;20126;-88
2022/11/14 01:36:19;;;;;;;44.95;26.27;;;7.20;99.90;;;;;;5068056;28;20059;-89
2022/11/14 01:38:45;;;;;;;46.00;27.67;;;7.70;99.90;;;;;;5083742;28;20067;-88
2022/11/14 01:41:13;;;;;;;47.15;27.75;;;7.30;99.90;;;;;;5052649;28;20082;-88
2022/11/14 01:43:40;;;;;;;43.17;28.33;;;8.10;99.90;;;;;;5093388;28;20059;-88
2022/11/14 01:46:18;;;;;;;49.90;28.20;;;8.00;99.90;;;;;;5071075;28;20082;-89
2022/11/14 01:48:50;;;;;;;43.83;29.25;;;7.10;99.90;;;;;;5072913;28;20044;-89
2022/11/14 01:51:30;;;;;;;38.13;21.75;;;7.10;99.90;;;;;;5067986;28;20044;-89
2022/11/14 01:53:59;;;;;;;49.65;28.70;;;7.20;99.90;;;;;;5052382;28;20090;-89
2022/11/14 01:56:36;;;;;;;51.28;28.83;;;7.00;99.90;;;;;;5048906;28;20051;-88
2022/11/14 01:59:06;;;;;;;50.78;29.73;;;7.00;99.90;;;;;;5067627;28;20048;-88
2022/11/14 02:01:35;;;;;;;49.55;30.42;;;7.10;99.90;;;;;;5085381;28;20487;-89
2022/11/14 02:04:03;;;;;;;51.05;29.75;;;7.00;99.90;;;;;;5049166;28;20044;-88
2022/11/14 02:06:30;;;;;;;56.55;32.13;;;7.00;99.90;;;;;;5051186;28;20499;-88
2022/11/14 02:08:59;;;;;;;51.90;29.65;;;7.50;99.90;;;;;;5048967;28;20588;-88
2022/11/14 02:11:29;;;;;;;52.55;30.23;;;7.50;99.90;;;;;;5066446;28;20402;-88
2022/11/14 02:13:55;;;;;;;48.03;30.13;;;7.00;99.90;;;;;;5063636;28;20048;-88
2022/11/14 02:16:20;;;;;;;50.55;30.25;;;7.00;99.90;;;;;;5048422;28;20032;-89
2022/11/14 02:18:46;;;;;;;51.05;29.48;;;7.00;99.90;;;;;;5066562;28;20131;-87
2022/11/14 02:21:12;;;;;;;50.90;30.17;;;7.70;99.90;;;;;;5083842;28;20079;-88
2022/11/14 02:23:37;;;;;;;52.08;30.13;;;7.40;99.90;;;;;;5050800;28;20051;-88
2022/11/14 02:26:03;;;;;;;52.75;29.85;;;7.00;99.90;;;;;;5066096;28;20120;-88
2022/11/14 02:28:29;;;;;;;52.17;29.40;;;7.00;99.90;;;;;;5086193;28;20102;-88
2022/11/14 02:30:54;;;;;;;48.03;29.05;;;7.00;99.90;;;;;;5082370;28;20056;-89
2022/11/14 02:33:20;;;;;;;51.53;30.08;;;8.10;99.90;;;;;;5050581;28;20082;-88
2022/11/14 02:35:46;;;;;;;57.20;30.17;;;8.00;99.90;;;;;;5049102;28;20056;-88
2022/11/14 02:38:12;;;;;;;54.38;30.38;;;7.50;99.90;;;;;;5066883;28;20133;-89
2022/11/14 02:40:38;;;;;;;50.38;27.98;;;7.00;99.90;;;;;;5051417;28;20260;-89
2022/11/14 02:43:03;;;;;;;46.75;28.80;;;8.10;99.90;;;;;;5049174;28;20497;-89
2022/11/14 02:45:29;;;;;;;49.85;30.95;;;7.00;99.90;;;;;;5051867;28;20128;-88
2022/11/14 02:47:55;;;;;;;51.25;28.92;;;7.00;99.90;;;;;;5032311;28;20403;-88
2022/11/14 02:50:21;;;;;;;49.25;28.55;;;7.00;99.90;;;;;;5035919;28;20055;-89
2022/11/14 02:52:46;;;;;;;51.83;27.48;;;7.50;99.90;;;;;;5070597;28;20518;-88
2022/11/14 02:55:12;;;;;;;52.58;27.77;;;7.20;99.90;;;;;;5053817;28;20043;-88
2022/11/14 02:57:38;;;;;;;51.53;28.02;;;7.20;99.90;;;;;;5037648;28;20048;-89
2022/11/14 03:00:05;;;;;;;51.95;28.13;;;7.10;99.90;;;;;;5052919;28;20131;-88
2022/11/14 03:02:30;;;;;;;48.90;27.70;;;7.10;99.90;;;;;;5072098;28;20395;-89
2022/11/14 03:04:56;;;;;;;53.03;29.48;;;7.90;99.90;;;;;;5087265;28;20556;-87
2022/11/14 03:07:22;;;;;;;52.60;29.67;;;8.10;99.90;;;;;;5054815;28;20036;-88
2022/11/14 03:09:48;;;;;;;49.00;27.67;;;7.10;99.90;;;;;;5052428;28;20040;-89
2022/11/14 03:12:17;;;;;;;51.00;28.17;;;7.70;99.90;;;;;;5089049;28;20044;-86
2022/11/14 03:14:43;;;;;;;45.22;27.27;;;8.40;99.90;;;;;;5067484;28;20510;-86
2022/11/14 03:18:57;;;;;;;46.17;28.17;;;7.20;99.90;;;;;;4643431;27;15064196;-84
2022/11/14 03:21:23;;;;;;;43.97;26.05;;;7.60;99.90;;;;;;5152714;27;20038;-86
2022/11/14 03:23:49;;;;;;;51.72;29.13;;;7.30;99.90;;;;;;5169802;27;20046;-87
2022/11/14 03:26:15;;;;;;;47.17;28.17;;;7.90;99.90;;;;;;5171130;27;20053;-84
2022/11/14 03:28:41;;;;;;;46.45;27.77;;;8.20;99.90;;;;;;5187740;27;20042;-84
2022/11/14 03:31:09;;;;;;;45.70;26.77;;;7.70;99.90;;;;;;5190287;27;20046;-85
2022/11/14 03:33:35;;;;;;;46.58;28.23;;;7.30;99.90;;;;;;5168424;27;20038;-85
2022/11/14 03:36:01;;;;;;;46.17;29.02;;;8.00;99.90;;;;;;5153702;27;20098;-85
2022/11/14 03:38:28;;;;;;;51.13;28.33;;;7.30;99.90;;;;;;5134732;27;20405;-85
2022/11/14 03:40:53;;;;;;;45.35;28.08;;;7.30;99.90;;;;;;5152816;27;20049;-86
2022/11/14 03:43:20;;;;;;;47.72;28.70;;;8.20;99.90;;;;;;5171069;27;20046;-85
2022/11/14 03:45:47;;;;;;;43.85;27.48;;;7.30;99.90;;;;;;5188156;27;20034;-86
2022/11/14 03:48:13;;;;;;;42.40;26.92;;;8.30;99.90;;;;;;5171314;27;20045;-86
2022/11/14 03:50:40;;;;;;;42.17;26.92;;;7.20;99.90;;;;;;5156784;27;20042;-86
2022/11/14 03:53:06;;;;;;;48.97;27.67;;;7.80;99.90;;;;;;5200632;27;20042;-84
2022/11/14 03:55:32;;;;;;;46.08;26.30;;;7.30;99.90;;;;;;5174010;27;20073;-89
2022/11/14 03:57:58;;;;;;;42.90;26.48;;;7.80;99.90;;;;;;5171464;27;20038;-88
2022/11/14 04:00:24;;;;;;;46.38;26.73;;;7.80;99.90;;;;;;5170804;27;20061;-86
2022/11/14 04:02:49;;;;;;;44.17;27.75;;;7.20;99.90;;;;;;5187982;27;20089;-87
2022/11/14 04:05:15;;;;;;;44.38;26.27;;;7.60;99.90;;;;;;5153857;27;20125;-88
2022/11/14 04:07:41;;;;;;;47.72;27.75;;;7.20;99.90;;;;;;5150721;27;20050;-87
2022/11/14 04:10:07;;;;;;;49.55;27.13;;;8.20;99.90;;;;;;5170680;27;20046;-88
2022/11/14 04:12:33;;;;;;;43.22;26.55;;;7.20;99.90;;;;;;5184926;27;20042;-87
2022/11/14 04:14:58;;;;;;;44.05;28.77;;;7.80;99.90;;;;;;5134675;27;20056;-88
2022/11/14 04:17:24;;;;;;;45.08;26.70;;;7.20;99.90;;;;;;5132811;27;20092;-86
2022/11/14 04:19:50;;;;;;;45.67;28.02;;;7.20;99.90;;;;;;5188185;27;20042;-87
2022/11/14 04:22:16;;;;;;;47.00;29.00;;;7.20;99.90;;;;;;5153141;27;20069;-87
2022/11/14 04:24:41;;;;;;;47.67;28.13;;;7.00;99.90;;;;;;5168265;27;20030;-87
2022/11/14 04:27:07;;;;;;;45.13;29.48;;;8.00;99.90;;;;;;5170634;27;20042;-87
2022/11/14 04:29:33;;;;;;;47.20;30.02;;;7.50;99.90;;;;;;5106264;27;20074;-86
2022/11/14 04:31:58;;;;;;;47.80;28.95;;;8.00;99.90;;;;;;5155907;27;20483;-88
2022/11/14 04:34:24;;;;;;;51.58;31.33;;;7.20;99.90;;;;;;5137160;27;20046;-87
2022/11/14 04:36:50;;;;;;;49.50;30.25;;;7.60;99.90;;;;;;5155680;27;20054;-87
2022/11/14 04:39:16;;;;;;;50.35;30.92;;;7.50;99.90;;;;;;5174693;27;20042;-88
2022/11/14 04:41:42;;;;;;;52.15;30.73;;;7.20;99.90;;;;;;5154013;27;20408;-87
2022/11/14 04:44:08;;;;;;;47.17;29.52;;;7.20;99.90;;;;;;5138808;27;20038;-87
2022/11/14 04:46:34;;;;;;;47.13;29.92;;;8.20;99.90;;;;;;5136219;27;20038;-87
2022/11/14 04:48:59;;;;;;;44.33;28.92;;;7.20;99.90;;;;;;5174743;27;20049;-87
2022/11/14 04:51:25;;;;;;;48.88;29.80;;;7.20;99.90;;;;;;5153709;27;20466;-87
2022/11/14 04:53:51;;;;;;;45.58;29.23;;;8.10;99.90;;;;;;5120891;27;20385;-87
2022/11/14 04:56:24;;;;;;;47.20;29.70;;;7.10;99.90;;;;;;5155948;27;20165;-87
2022/11/14 04:58:50;;;;;;;45.00;29.23;;;8.10;99.90;;;;;;5136407;27;20042;-87
2022/11/14 05:01:16;;;;;;;44.75;27.23;;;7.10;99.90;;;;;;5155802;27;20038;-87
2022/11/14 05:03:42;;;;;;;46.45;27.73;;;7.60;99.90;;;;;;5153216;27;20408;-86
2022/11/14 05:06:08;;;;;;;45.20;27.48;;;7.30;99.90;;;;;;5138076;27;20041;-86
2022/11/14 05:08:34;;;;;;;40.97;27.02;;;7.10;99.90;;;;;;5135917;27;20044;-86
2022/11/14 05:10:59;;;;;;;41.90;27.48;;;7.10;99.90;;;;;;5172923;27;20496;-86
2022/11/14 05:13:25;;;;;;;44.65;27.58;;;8.10;99.90;;;;;;5118525;27;20374;-85
2022/11/14 05:15:51;;;;;;;38.72;26.08;;;8.10;99.90;;;;;;5151611;27;20118;-86
2022/11/14 05:18:17;;;;;;;47.03;26.83;;;7.10;99.90;;;;;;5137730;27;20047;-86
2022/11/14 05:20:42;;;;;;;39.67;26.20;;;7.00;99.90;;;;;;5153849;27;20056;-85
2022/11/14 05:23:20;;;;;;;48.33;26.20;;;7.60;99.90;;;;;;5156346;27;20235;-85
2022/11/14 05:25:46;;;;;;;44.83;26.60;;;7.80;99.90;;;;;;5136104;27;20102;-85
2022/11/14 05:28:12;;;;;;;43.85;27.88;;;7.40;99.90;;;;;;5138278;27;20121;-87
2022/11/14 05:30:38;;;;;;;44.95;27.52;;;7.00;99.90;;;;;;5154292;27;20095;-86
2022/11/14 05:33:04;;;;;;;41.28;26.42;;;6.90;99.90;;;;;;5155786;27;20042;-86
2022/11/14 05:35:29;;;;;;;49.22;28.70;;;7.70;99.90;;;;;;5155255;27;20043;-87
2022/11/14 05:37:56;;;;;;;42.58;27.48;;;7.80;99.90;;;;;;5137091;27;20046;-89
2022/11/14 05:40:22;;;;;;;50.53;28.02;;;7.00;99.90;;;;;;5137106;27;20137;-86
2022/11/14 05:42:48;;;;;;;44.65;27.33;;;7.70;99.90;;;;;;5117391;27;20619;-87
2022/11/14 05:45:13;;;;;;;45.97;27.15;;;7.80;99.90;;;;;;5136758;27;20042;-86
2022/11/14 05:47:39;;;;;;;46.30;27.00;;;6.90;99.90;;;;;;5152577;27;20046;-87
2022/11/14 05:50:05;;;;;;;47.72;27.65;;;6.90;99.90;;;;;;5136271;27;20477;-85
2022/11/14 05:52:31;;;;;;;45.97;28.05;;;6.90;99.90;;;;;;5136599;27;20481;-87
2022/11/14 05:54:57;;;;;;;44.25;27.80;;;6.90;99.90;;;;;;5118081;27;20041;-89
2022/11/14 05:57:22;;;;;;;43.83;27.33;;;6.90;99.90;;;;;;5155032;27;20401;-86
2022/11/14 05:59:48;;;;;;;46.17;26.40;;;7.90;99.90;;;;;;5157226;27;20045;-88
2022/11/14 06:02:13;;;;;;;44.17;27.25;;;7.50;99.90;;;;;;5126087;27;20374;-89
2022/11/14 06:04:39;;;;;;;45.83;27.50;;;7.70;99.90;;;;;;5135648;27;20181;-88
2022/11/14 06:07:05;;;;;;;48.88;25.90;;;6.90;99.90;;;;;;5172335;27;20476;-88
2022/11/14 06:09:30;;;;;;;49.40;27.23;;;6.80;99.90;;;;;;5135963;27;20204;-87
2022/11/14 06:11:56;;;;;;;47.78;28.80;;;6.80;99.90;;;;;;5135182;27;20046;-89
2022/11/14 06:14:22;;;;;;;48.65;28.58;;;6.80;99.90;;;;;;5102471;27;20045;-86
2022/11/14 06:16:55;;;;;;;45.10;26.80;;;7.70;99.90;;;;;;5150909;27;20046;-86
2022/11/14 06:19:20;;;;;;;43.55;24.60;;;6.70;99.90;;;;;;5131659;27;20050;-87
2022/11/14 06:21:46;;;;;;;46.70;26.05;;;7.60;99.90;;;;;;5113450;27;20050;-89
2022/11/14 06:24:12;;;;;;;46.22;25.95;;;7.30;99.90;;;;;;5149987;27;20038;-88
2022/11/14 06:26:37;;;;;;;47.22;27.85;;;7.70;99.90;;;;;;5114817;27;20081;-90
2022/11/14 06:29:03;;;;;;;47.42;28.42;;;6.70;99.90;;;;;;5131635;27;20045;-86
2022/11/14 06:31:29;;;;;;;44.83;27.40;;;6.70;99.90;;;;;;5132867;27;20043;-90
2022/11/14 06:33:55;;;;;;;52.20;28.52;;;7.70;99.90;;;;;;5131539;27;20058;-88
2022/11/14 06:36:21;;;;;;;46.58;27.38;;;7.30;99.90;;;;;;5152826;27;20403;-94
2022/11/14 06:38:47;;;;;;;52.97;27.95;;;7.30;99.90;;;;;;5097756;27;20493;-93
2022/11/14 06:41:16;;;;;;;49.28;27.27;;;6.70;99.90;;;;;;5116989;27;20034;-94
2022/11/14 06:43:43;;;;;;;54.92;28.95;;;6.70;99.90;;;;;;5133105;27;20057;-92
2022/11/14 06:46:12;;;;;;;49.38;28.42;;;7.00;99.90;;;;;;5132367;27;20047;-93
2022/11/14 06:48:38;;;;;;;54.17;28.42;;;6.60;99.90;;;;;;5133681;27;20504;-93
2022/11/14 06:51:05;;;;;;;53.88;27.33;;;6.60;99.90;;;;;;5114794;27;20557;-93
2022/11/14 06:53:33;;;;;;;48.88;27.92;;;6.60;99.90;;;;;;5099649;27;20078;-93
2022/11/14 06:56:03;;;;;;;50.60;28.40;;;6.70;99.90;;;;;;5131576;27;20041;-93
2022/11/14 06:58:31;;;;;;;50.10;27.95;;;6.60;99.90;;;;;;5132521;27;20053;-93
2022/11/14 07:01:04;;;;;;;51.53;26.70;;;6.60;99.90;;;;;;5131520;27;20130;-93
2022/11/14 07:03:30;;;;;;;57.90;28.92;;;6.60;99.90;;;;;;5131217;27;20446;-93
2022/11/14 07:06:00;;;;;;;55.63;27.50;;;6.60;99.90;;;;;;5131823;27;20095;-91
2022/11/14 07:08:26;;;;;;;52.72;27.38;;;6.60;99.90;;;;;;5110763;27;20099;-93
2022/11/14 07:10:52;;;;;;;56.60;28.30;;;7.60;99.90;;;;;;5131833;27;20035;-93
2022/11/14 07:13:17;;;;;;;55.50;28.17;;;6.60;99.90;;;;;;5112751;27;20053;-93
2022/11/14 07:15:53;;;;;;;53.67;27.92;;;6.50;99.90;;;;;;5148917;27;20494;-92
2022/11/14 07:18:19;;;;;;;49.72;28.20;;;6.50;99.90;;;;;;5131476;27;20082;-92
2022/11/14 07:20:46;;;;;;;52.50;27.35;;;7.40;99.90;;;;;;5117151;27;20103;-92
2022/11/14 07:23:12;;;;;;;50.47;28.23;;;7.00;99.90;;;;;;5120822;27;20038;-93
2022/11/14 07:25:38;;;;;;;55.13;27.50;;;6.50;99.90;;;;;;5148059;27;20050;-92
2022/11/14 07:28:04;;;;;;;51.72;27.92;;;7.20;99.90;;;;;;5099135;27;20042;-92
2022/11/14 07:30:30;;;;;;;52.88;27.98;;;6.60;99.90;;;;;;5112491;27;20081;-93
2022/11/14 07:32:56;;;;;;;58.40;29.73;;;6.50;99.90;;;;;;5114684;27;20116;-92
2022/11/14 07:35:22;;;;;;;59.53;31.67;;;6.90;99.90;;;;;;5131351;27;20050;-92
2022/11/14 07:37:49;;;;;;;55.25;29.10;;;6.60;99.90;;;;;;5129114;27;20269;-92
2022/11/14 07:40:16;;;;;;;57.95;29.27;;;6.80;99.90;;;;;;5132253;27;20035;-92
2022/11/14 07:42:42;;;;;;;51.65;28.58;;;6.90;99.90;;;;;;5111592;27;20049;-93
2022/11/14 07:45:08;;;;;;;56.85;29.20;;;6.50;99.90;;;;;;5114961;27;20045;-89
2022/11/14 07:47:34;;;;;;;56.30;29.45;;;6.50;99.90;;;;;;5127804;27;20047;-89
2022/11/14 07:50:00;;;;;;;53.88;28.42;;;6.50;99.90;;;;;;5147755;27;20047;-90
2022/11/14 07:52:25;;;;;;;50.42;27.35;;;7.10;99.90;;;;;;5129822;27;20047;-88
2022/11/14 07:54:51;;;;;;;52.20;27.70;;;6.50;99.90;;;;;;5146612;27;20091;-90
2022/11/14 07:57:17;;;;;;;46.20;26.55;;;6.50;99.90;;;;;;5130964;27;20049;-90
2022/11/14 07:59:42;;;;;;;51.58;27.95;;;6.90;99.90;;;;;;5110781;27;20335;-91
2022/11/14 08:02:13;;;;;;;51.25;27.80;;;6.50;99.90;;;;;;5131461;27;20125;-90
2022/11/14 08:04:40;;;;;;;49.30;27.70;;;6.50;99.90;;;;;;5151938;27;20034;-91
2022/11/14 08:07:06;;;;;;;53.80;28.65;;;6.50;99.90;;;;;;5142260;27;20035;-89
2022/11/14 08:09:31;;;;;;;48.60;26.33;;;6.70;99.90;;;;;;5123060;27;20042;-90
2022/11/14 08:12:00;;;;;;;50.63;26.05;;;7.50;99.90;;;;;;5099334;27;20050;-90
2022/11/14 08:14:25;;;;;;;48.42;25.40;;;6.70;99.90;;;;;;5116627;27;20050;-92
2022/11/14 08:16:51;;;;;;;54.22;27.42;;;6.50;99.90;;;;;;5130750;27;20042;-90
2022/11/14 08:19:17;;;;;;;55.72;28.63;;;7.60;99.90;;;;;;5117454;27;20125;-91
2022/11/14 08:21:43;;;;;;;56.95;29.17;;;6.90;99.90;;;;;;5097786;27;20115;-91
2022/11/14 08:24:09;;;;;;;56.35;29.48;;;6.60;99.90;;;;;;5152149;27;20134;-90
2022/11/14 08:26:35;;;;;;;53.22;28.33;;;6.60;99.90;;;;;;5115909;27;20085;-91
2022/11/14 08:29:01;;;;;;;51.78;29.75;;;7.60;99.90;;;;;;5099657;27;20041;-91
2022/11/14 08:31:27;;;;;;;51.83;28.13;;;7.70;99.90;;;;;;5134068;27;20046;-91
2022/11/14 08:33:53;;;;;;;54.42;28.52;;;6.90;99.90;;;;;;5131782;27;20484;-90
2022/11/14 08:36:19;;;;;;;56.50;29.10;;;7.40;99.90;;;;;;5134075;27;20081;-90
2022/11/14 08:38:44;;;;;;;59.08;30.33;;;6.70;99.90;;;;;;5097092;27;20039;-91
2022/11/14 08:41:10;;;;;;;51.15;28.95;;;6.80;99.90;;;;;;5099953;27;20038;-90
2022/11/14 08:43:36;;;;;;;52.42;29.23;;;7.70;99.90;;;;;;5115618;27;20049;-91
2022/11/14 08:46:04;;;;;;;54.90;29.17;;;6.80;99.90;;;;;;5118036;27;20043;-89
2022/11/14 08:48:31;;;;;;;50.40;27.83;;;6.80;99.90;;;;;;5138213;27;20043;-89
2022/11/14 08:50:57;;;;;;;55.05;28.98;;;7.40;99.90;;;;;;5152392;27;20049;-91
2022/11/14 08:53:22;;;;;;;47.03;27.13;;;6.90;99.90;;;;;;5100684;27;20054;-91
2022/11/14 08:55:48;;;;;;;44.25;26.92;;;6.90;99.90;;;;;;5113979;27;20038;-92
2022/11/14 08:58:14;;;;;;;48.28;26.10;;;7.70;99.90;;;;;;5117065;27;20043;-91
2022/11/14 09:00:40;;;;;;;52.30;28.52;;;7.70;99.90;;;;;;5114496;27;20604;-91
2022/11/14 09:03:08;;;;;;;44.00;26.42;;;6.90;99.90;;;;;;5098949;27;20050;-90
2022/11/14 09:05:34;;;;;;;48.30;25.65;;;7.00;99.90;;;;;;5116345;27;20126;-91
2022/11/14 09:08:00;;;;;;;44.92;25.58;;;6.90;99.90;;;;;;5147302;27;20489;-91
2022/11/14 09:10:25;;;;;;;46.78;25.88;;;7.20;99.90;;;;;;5133131;27;20083;-91
2022/11/14 09:12:59;;;;;;;45.08;27.70;;;7.10;99.90;;;;;;5114330;27;20091;-91
2022/11/14 09:15:29;;;;;;;50.80;25.42;;;7.00;99.90;;;;;;5134030;27;20039;-91
2022/11/14 09:17:56;;;;;;;42.65;25.13;;;7.00;99.90;;;;;;5132445;27;20038;-91
2022/11/14 09:20:23;;;;;;;46.08;25.65;;;7.10;99.90;;;;;;5135718;27;20034;-89
2022/11/14 09:22:52;;;;;;;48.45;27.75;;;7.20;99.90;;;;;;5120361;27;20047;-90
2022/11/14 09:25:20;;;;;;;47.85;26.35;;;6.30;99.90;;;;;;5134289;27;20057;-90
2022/11/14 09:27:46;;;;;;;48.58;25.67;;;7.10;99.90;;;;;;5136487;27;20086;-91
2022/11/14 09:30:13;;;;;;;47.95;26.25;;;7.20;99.90;;;;;;5100103;27;20472;-89
2022/11/14 09:32:38;;;;;;;43.55;26.30;;;7.10;99.90;;;;;;5119847;27;20308;-90
2022/11/14 09:35:04;;;;;;;46.80;27.30;;;7.40;99.90;;;;;;5101594;27;20486;-89
2022/11/14 09:37:30;;;;;;;45.65;26.02;;;7.20;99.90;;;;;;5135971;27;20054;-89
2022/11/14 09:39:56;;;;;;;46.42;26.25;;;7.20;99.90;;;;;;5136716;27;20046;-89
2022/11/14 09:42:40;;;;;;;49.20;26.55;;;7.30;99.90;;;;;;5150947;27;20424;-92
2022/11/14 09:45:14;;;;;;;47.10;25.98;;;7.40;99.90;;;;;;5136722;27;20113;-92
2022/11/14 09:47:51;;;;;;;46.83;26.13;;;8.00;99.90;;;;;;5134783;27;20046;-92
2022/11/14 09:50:21;;;;;;;45.72;26.38;;;7.60;99.90;;;;;;5139449;27;20042;-91
2022/11/14 09:53:16;;;;;;;40.38;24.67;;;7.70;99.90;;;;;;5157300;27;20038;-92
2022/11/14 09:55:41;;;;;;;44.25;25.92;;;7.90;99.90;;;;;;5119188;27;20058;-90
2022/11/14 09:58:15;;;;;;;42.67;25.23;;;7.90;99.90;;;;;;5105443;27;20042;-91
2022/11/14 10:01:16;;;;;;;44.50;24.77;;;7.90;99.90;;;;;;5135486;27;20072;-91
2022/11/14 10:03:42;;;;;;;40.33;24.10;;;7.90;99.90;;;;;;5134969;27;20190;-96
2022/11/14 10:06:33;;;;;;;41.53;25.77;;;7.80;99.90;;;;;;5138000;27;20081;-95
2022/11/14 10:09:24;;;;;;;40.13;24.73;;;7.70;99.90;;;;;;5135504;27;20137;-94
2022/11/14 10:12:03;;;;;;;43.00;25.23;;;7.80;99.90;;;;;;5135115;27;20053;-84
2022/11/14 10:14:36;;;;;;;42.72;25.25;;;8.20;99.90;;;;;;5138758;27;20102;-84
2022/11/14 10:17:45;;;;;;;32.88;19.88;;;7.90;99.90;;;;;;5135672;27;20133;-85
2022/11/14 10:20:37;;;;;;;43.17;25.13;;;8.00;99.90;;;;;;5154028;27;20054;-85
2022/11/14 10:23:21;;;;;;;40.35;24.35;;;7.90;99.90;;;;;;5124135;27;20133;-85
2022/11/14 10:25:59;;;;;;;45.67;25.13;;;7.80;99.90;;;;;;5150731;27;20058;-86
2022/11/14 10:28:43;;;;;;;39.88;25.02;;;7.80;99.90;;;;;;5135195;27;20516;-85
2022/11/14 10:31:24;;;;;;;45.42;25.17;;;7.80;99.90;;;;;;5152323;27;20053;-86
2022/11/14 10:34:06;;;;;;;41.03;24.15;;;7.70;99.90;;;;;;5150346;27;20050;-85
2022/11/14 10:37:01;;;;;;;31.93;18.50;;;7.70;99.90;;;;;;5135361;27;20042;-86
2022/11/14 10:39:31;;;;;;;42.08;24.95;;;7.80;99.90;;;;;;5151735;27;20512;-85
2022/11/14 10:42:02;;;;;;;44.22;25.27;;;7.80;99.90;;;;;;5133912;27;20117;-88
2022/11/14 10:44:41;;;;;;;42.55;25.88;;;7.80;99.90;;;;;;5152453;27;20125;-86
2022/11/14 10:47:13;;;;;;;37.40;24.10;;;8.20;99.90;;;;;;5149233;27;20489;-86
2022/11/14 10:49:39;;;;;;;30.93;20.87;;;8.00;99.90;;;;;;5135203;27;20042;-86
2022/11/14 10:52:38;;;;;;;39.85;24.05;;;9.00;99.90;;;;;;5116830;27;20129;-85
2022/11/14 10:55:14;;;;;;;38.85;24.90;;;8.10;99.90;;;;;;5132583;27;20078;-87
2022/11/14 10:57:40;;;;;;;41.72;25.83;;;8.10;99.90;;;;;;5152479;27;20163;-89
2022/11/14 11:00:15;;;;;;;43.58;26.23;;;8.00;99.90;;;;;;5098516;27;20038;-93
2022/11/14 11:02:51;;;;;;;37.22;23.92;;;8.10;99.90;;;;;;5135113;27;20038;-88
2022/11/14 11:05:20;;;;;;;37.70;24.77;;;8.60;99.90;;;;;;5151693;27;20042;-88
2022/11/14 11:13:35;;;;;;;46.13;26.45;;;8.00;99.90;;;;;;5148148;27;20477;-91
2022/11/14 11:16:03;;;;;;;41.58;26.92;;;8.10;99.90;;;;;;5133911;27;20536;-91
2022/11/14 11:18:34;;;;;;;41.38;26.65;;;8.10;99.90;;;;;;5130760;27;20134;-89
2022/11/14 11:21:06;;;;;;;44.53;26.88;;;8.10;99.90;;;;;;5128729;27;20042;-90
2022/11/14 11:23:33;;;;;;;35.83;20.40;;;8.10;99.90;;;;;;5149008;27;20466;-90
2022/11/14 11:26:30;;;;;;;41.28;26.80;;;8.70;99.90;;;;;;5145873;27;20066;-90
2022/11/14 11:29:06;;;;;;;48.20;27.17;;;8.20;99.90;;;;;;5130401;27;20053;-90
2022/11/14 11:31:55;;;;;;;42.50;25.80;;;8.20;99.90;;;;;;5131360;27;20532;-89
2022/11/14 11:34:27;;;;;;;38.28;23.45;;;8.20;99.90;;;;;;5128774;27;20050;-89
2022/11/14 11:37:17;;;;;;;38.47;23.52;;;8.30;99.90;;;;;;5113720;27;20039;-88
2022/11/14 11:39:51;;;;;;;38.50;22.00;;;8.40;99.90;;;;;;5135206;27;20058;-88
2022/11/14 11:42:41;;;;;;;36.85;23.25;;;8.40;99.90;;;;;;5150021;27;20043;-88
2022/11/14 11:45:26;;;;;;;36.88;23.17;;;9.00;99.90;;;;;;5153927;27;20043;-88
2022/11/14 11:48:00;;;;;;;36.45;22.45;;;8.70;99.90;;;;;;5150664;27;20039;-89
2022/11/14 11:50:25;;;;;;;43.53;22.92;;;8.80;99.90;;;;;;5151962;27;20433;-90
2022/11/14 11:53:15;;;;;;;36.25;23.38;;;8.90;99.90;;;;;;5135120;27;20039;-89
2022/11/14 11:55:48;;;;;;;37.83;23.65;;;9.00;99.90;;;;;;5149461;27;20043;-89
2022/11/14 11:58:25;;;;;;;39.40;23.90;;;9.40;99.90;;;;;;5134568;27;20050;-88
2022/11/14 12:00:54;;;;;;;39.67;23.15;;;9.40;99.90;;;;;;5151880;27;20115;-88
2022/11/14 12:03:21;;;;;;;40.92;24.58;;;9.50;99.90;;;;;;5134174;27;20385;-88
2022/11/14 12:06:08;;;;;;;44.53;27.15;;;9.70;99.90;;;;;;5135035;27;20050;-89
2022/11/14 12:08:55;;;;;;;41.70;25.80;;;9.80;99.90;;;;;;5148785;27;20042;-89
2022/11/14 12:11:25;;;;;;;40.92;26.27;;;9.90;99.90;;;;;;5150760;27;20103;-88
2022/11/14 12:14:05;;;;;;;40.78;25.88;;;10.00;99.90;;;;;;5132795;27;20459;-88
2022/11/14 12:16:56;;;;;;;36.33;23.65;;;10.10;99.90;;;;;;5132856;27;20071;-88
2022/11/14 12:19:30;;;;;;;39.45;23.92;;;10.20;99.90;;;;;;5153534;27;20559;-89
2022/11/14 12:21:59;;;;;;;40.83;23.45;;;10.20;99.90;;;;;;5171137;27;20087;-89
2022/11/14 12:24:49;;;;;;;37.22;20.58;;;10.20;99.90;;;;;;5141320;27;20430;-89
2022/11/14 12:27:41;;;;;;;34.53;20.58;;;10.10;99.90;;;;;;5134945;27;20047;-89
2022/11/14 12:30:20;;;;;;;34.40;21.30;;;10.00;99.90;;;;;;5131332;27;20049;-89
2022/11/14 12:32:58;;;;;;;33.90;21.15;;;9.90;99.90;;;;;;5151405;27;20053;-89
2022/11/14 12:35:35;;;;;;;33.63;21.92;;;9.80;99.90;;;;;;5133461;27;20103;-89
2022/11/14 12:38:04;;;;;;;32.80;20.08;;;9.90;99.90;;;;;;5114456;27;20497;-84
2022/11/14 12:40:33;;;;;;;36.10;20.90;;;9.60;99.90;;;;;;5150964;27;20053;-88
2022/11/14 12:43:01;;;;;;;39.15;21.73;;;9.60;99.90;;;;;;5149550;27;20134;-88
2022/11/14 12:45:39;;;;;;;33.35;21.13;;;9.60;99.90;;;;;;5149405;27;20535;-89
2022/11/14 12:48:14;;;;;;;32.70;21.48;;;9.60;99.90;;;;;;5148402;27;20055;-88
2022/11/14 12:50:42;;;;;;;30.90;20.92;;;9.70;99.90;;;;;;5148045;27;20258;-88
2022/11/14 12:53:37;;;;;;;30.55;20.77;;;9.70;99.90;;;;;;5133326;27;20142;-88
2022/11/14 12:56:29;;;;;;;33.05;20.92;;;9.80;99.90;;;;;;5147422;27;20055;-88